createdAt,value
2018-09-11T00:00:51.776Z,82.60
2018-09-11T00:01:56.573Z,82.82
2018-09-11T00:03:01.119Z,82.89
2018-09-11T00:04:05.810Z,82.85
2018-09-11T00:05:13.529Z,82.64
2018-09-11T00:06:18.362Z,82.71
2018-09-11T00:07:23.283Z,83.17
2018-09-11T00:08:28.528Z,82.65
2018-09-11T00:09:33.065Z,82.67
2018-09-11T00:10:38.356Z,82.62
2018-09-11T00:11:43.588Z,83.09
2018-09-11T00:12:48.072Z,83.36
2018-09-11T00:13:52.855Z,83.39
2018-09-11T00:14:57.303Z,83.72
2018-09-11T00:16:01.907Z,83.85
2018-09-11T00:17:06.686Z,84.25
2018-09-11T00:18:11.587Z,84.24
2018-09-11T00:19:16.080Z,84.54
2018-09-11T00:20:20.858Z,84.51
2018-09-11T00:21:25.465Z,84.75
2018-09-11T00:22:29.979Z,84.67
2018-09-11T00:23:34.582Z,84.69
2018-09-11T00:24:39.052Z,84.86
2018-09-11T00:25:44.463Z,84.59
2018-09-11T00:26:49.493Z,84.63
2018-09-11T00:27:53.951Z,84.48
2018-09-11T00:28:58.408Z,84.93
2018-09-11T00:30:04.447Z,84.72
2018-09-11T00:31:09.920Z,85.02
2018-09-11T00:32:14.405Z,85.39
2018-09-11T00:33:19.322Z,85.67
2018-09-11T00:34:24.798Z,85.38
2018-09-11T00:35:30.098Z,85.44
2018-09-11T00:36:34.598Z,85.89
2018-09-11T00:37:39.059Z,86.19
2018-09-11T00:38:43.532Z,86.09
2018-09-11T00:39:48.601Z,86.14
2018-09-11T00:40:53.820Z,86.34
2018-09-11T00:41:58.693Z,86.11
2018-09-11T00:43:03.189Z,86.38
2018-09-11T00:44:07.730Z,86.12
2018-09-11T00:45:12.240Z,86.10
2018-09-11T00:46:17.031Z,86.46
2018-09-11T00:47:21.497Z,86.58
2018-09-11T00:48:26.074Z,86.21
2018-09-11T00:49:30.500Z,86.39
2018-09-11T00:50:35.170Z,86.32
2018-09-11T00:51:39.641Z,86.14
2018-09-11T00:52:44.438Z,86.09
2018-09-11T00:53:48.915Z,86.10
2018-09-11T00:54:53.522Z,86.20
2018-09-11T00:55:57.985Z,86.31
2018-09-11T00:57:02.475Z,86.47
2018-09-11T00:58:09.502Z,86.29
2018-09-11T00:59:14.498Z,86.60
2018-09-11T01:00:18.985Z,86.43
2018-09-11T01:01:23.526Z,86.65
2018-09-11T01:02:28.024Z,86.61
2018-09-11T01:03:32.546Z,86.74
2018-09-11T01:04:37.192Z,86.84
2018-09-11T01:05:41.943Z,87.04
2018-09-11T01:06:47.946Z,87.07
2018-09-11T01:07:52.417Z,87.27
2018-09-11T01:08:56.975Z,87.06
2018-09-11T01:10:01.672Z,87.22
2018-09-11T01:11:06.653Z,87.06
2018-09-11T01:12:11.798Z,87.42
2018-09-11T01:13:16.468Z,87.54
2018-09-11T01:14:20.933Z,87.17
2018-09-11T01:15:25.968Z,87.17
2018-09-11T01:16:30.518Z,87.08
2018-09-11T01:17:35.372Z,87.05
2018-09-11T01:18:40.227Z,87.21
2018-09-11T01:19:44.759Z,86.91
2018-09-11T01:20:49.573Z,87.27
2018-09-11T01:21:54.540Z,87.26
2018-09-11T01:22:59.027Z,87.04
2018-09-11T01:24:04.269Z,87.13
2018-09-11T01:25:09.016Z,87.03
2018-09-11T01:26:13.492Z,87.10
2018-09-11T01:27:18.025Z,86.75
2018-09-11T01:28:22.561Z,87.01
2018-09-11T01:29:27.183Z,87.07
2018-09-11T01:30:31.699Z,86.86
2018-09-11T01:31:36.467Z,87.10
2018-09-11T01:32:41.416Z,86.90
2018-09-11T01:33:45.896Z,86.79
2018-09-11T01:34:51.360Z,86.93
2018-09-11T01:35:56.871Z,86.95
2018-09-11T01:37:01.445Z,87.21
2018-09-11T01:38:07.325Z,87.42
2018-09-11T01:39:13.658Z,87.20
2018-09-11T01:40:18.138Z,87.39
2018-09-11T01:41:23.227Z,87.13
2018-09-11T01:42:28.088Z,87.20
2018-09-11T01:43:32.539Z,87.48
2018-09-11T01:44:37.328Z,87.54
2018-09-11T01:45:41.813Z,87.48
2018-09-11T01:46:46.283Z,87.50
2018-09-11T01:47:50.753Z,87.69
2018-09-11T01:48:55.200Z,87.84
2018-09-11T01:49:59.671Z,88.06
2018-09-11T01:51:04.429Z,88.09
2018-09-11T01:52:09.064Z,88.11
2018-09-11T01:53:13.861Z,88.42
2018-09-11T01:54:18.411Z,88.40
2018-09-11T01:55:22.879Z,88.40
2018-09-11T01:56:27.470Z,88.50
2018-09-11T01:57:32.306Z,88.71
2018-09-11T01:58:37.221Z,88.77
2018-09-11T01:59:41.687Z,88.70
2018-09-11T02:00:46.164Z,88.79
2018-09-11T02:01:50.624Z,89.00
2018-09-11T02:02:55.099Z,89.06
2018-09-11T02:03:59.998Z,88.96
2018-09-11T02:05:04.432Z,89.05
2018-09-11T02:06:08.887Z,88.77
2018-09-11T02:07:13.351Z,88.88
2018-09-11T02:08:17.828Z,88.83
2018-09-11T02:09:22.367Z,88.59
2018-09-11T02:10:27.132Z,88.35
2018-09-11T02:11:31.583Z,88.38
2018-09-11T02:12:36.074Z,88.50
2018-09-11T02:13:40.584Z,88.55
2018-09-11T02:14:45.251Z,88.49
2018-09-11T02:15:50.241Z,88.67
2018-09-11T02:16:55.028Z,88.62
2018-09-11T02:17:59.530Z,88.77
2018-09-11T02:19:04.200Z,89.13
2018-09-11T02:20:08.768Z,89.29
2018-09-11T02:21:13.919Z,89.17
2018-09-11T02:22:18.401Z,89.47
2018-09-11T02:23:23.449Z,89.38
2018-09-11T02:24:27.921Z,89.37
2018-09-11T02:25:33.308Z,89.63
2018-09-11T02:26:37.796Z,89.44
2018-09-11T02:27:42.407Z,89.32
2018-09-11T02:28:46.929Z,89.32
2018-09-11T02:29:51.405Z,89.35
2018-09-11T02:30:56.362Z,89.52
2018-09-11T02:32:00.910Z,89.46
2018-09-11T02:33:05.418Z,89.08
2018-09-11T02:34:10.057Z,89.18
2018-09-11T02:35:14.630Z,89.05
2018-09-11T02:36:19.153Z,88.94
2018-09-11T02:37:23.980Z,88.84
2018-09-11T02:38:28.753Z,89.04
2018-09-11T02:39:33.396Z,89.45
2018-09-11T02:40:38.417Z,89.48
2018-09-11T02:41:42.918Z,89.46
2018-09-11T02:42:47.465Z,89.55
2018-09-11T02:43:52.248Z,89.63
2018-09-11T02:44:56.718Z,89.50
2018-09-11T02:46:01.197Z,89.65
2018-09-11T02:47:05.697Z,89.79
2018-09-11T02:48:10.151Z,89.85
2018-09-11T02:49:15.063Z,89.99
2018-09-11T02:50:19.928Z,89.61
2018-09-11T02:51:24.388Z,89.74
2018-09-11T02:52:29.820Z,89.67
2018-09-11T02:53:34.291Z,89.72
2018-09-11T02:54:38.758Z,89.73
2018-09-11T02:55:43.199Z,89.83
2018-09-11T02:56:48.046Z,89.72
2018-09-11T02:57:52.544Z,89.78
2018-09-11T02:58:57.012Z,89.79
2018-09-11T03:00:01.470Z,89.94
2018-09-11T03:01:06.041Z,89.77
2018-09-11T03:02:10.557Z,89.86
2018-09-11T03:03:15.572Z,89.84
2018-09-11T03:04:20.091Z,89.76
2018-09-11T03:05:24.619Z,89.65
2018-09-11T03:06:29.135Z,89.94
2018-09-11T03:07:33.587Z,89.94
2018-09-11T03:08:38.090Z,89.93
2018-09-11T03:09:42.879Z,89.97
2018-09-11T03:10:47.358Z,90.13
2018-09-11T03:11:51.844Z,90.04
2018-09-11T03:12:57.288Z,90.02
2018-09-11T03:14:01.757Z,89.86
2018-09-11T03:15:06.782Z,89.77
2018-09-11T03:16:11.272Z,89.80
2018-09-11T03:17:15.728Z,89.50
2018-09-11T03:18:20.196Z,89.68
2018-09-11T03:19:24.778Z,89.49
2018-09-11T03:20:30.024Z,89.40
2018-09-11T03:21:34.818Z,89.39
2018-09-11T03:22:39.359Z,89.40
2018-09-11T03:23:43.839Z,89.43
2018-09-11T03:24:48.338Z,89.38
2018-09-11T03:25:52.821Z,89.40
2018-09-11T03:26:57.847Z,89.35
2018-09-11T03:28:02.729Z,89.27
2018-09-11T03:29:07.234Z,89.26
2018-09-11T03:30:11.737Z,89.03
2018-09-11T03:31:16.588Z,89.25
2018-09-11T03:32:21.052Z,89.11
2018-09-11T03:33:25.527Z,89.14
2018-09-11T03:34:30.303Z,88.87
2018-09-11T03:35:35.799Z,88.97
2018-09-11T03:36:40.640Z,89.08
2018-09-11T03:37:45.136Z,88.96
2018-09-11T03:38:49.589Z,89.23
2018-09-11T03:39:54.050Z,89.00
2018-09-11T03:40:58.957Z,89.13
2018-09-11T03:42:03.454Z,89.12
2018-09-11T03:43:08.008Z,89.04
2018-09-11T03:44:12.595Z,89.19
2018-09-11T03:45:17.239Z,89.16
2018-09-11T03:46:21.673Z,89.34
2018-09-11T03:47:26.823Z,89.14
2018-09-11T03:48:31.453Z,89.22
2018-09-11T03:49:36.063Z,89.02
2018-09-11T03:50:40.670Z,89.02
2018-09-11T03:51:45.180Z,89.06
2018-09-11T03:52:49.652Z,88.93
2018-09-11T03:53:54.414Z,88.89
2018-09-11T03:54:58.937Z,88.96
2018-09-11T03:56:03.472Z,88.63
2018-09-11T03:57:07.978Z,88.78
2018-09-11T03:58:12.520Z,88.95
2018-09-11T03:59:17.073Z,89.04
2018-09-11T04:00:21.869Z,89.03
2018-09-11T04:01:26.356Z,88.78
2018-09-11T04:02:30.840Z,88.91
2018-09-11T04:03:35.331Z,88.79
2018-09-11T04:04:39.931Z,88.87
2018-09-11T04:05:44.477Z,89.08
2018-09-11T04:06:49.856Z,88.98
2018-09-11T04:07:54.336Z,89.14
2018-09-11T04:08:58.866Z,89.20
2018-09-11T04:10:03.364Z,89.31
2018-09-11T04:11:07.883Z,89.22
2018-09-11T04:12:12.364Z,89.27
2018-09-11T04:13:17.158Z,89.10
2018-09-11T04:14:21.638Z,89.23
2018-09-11T04:15:26.178Z,89.07
2018-09-11T04:16:31.281Z,89.35
2018-09-11T04:17:42.797Z,89.19
2018-09-11T04:18:47.580Z,89.27
2018-09-11T04:19:52.005Z,89.35
2018-09-11T04:20:56.467Z,89.36
2018-09-11T04:22:00.963Z,89.57
2018-09-11T04:23:05.634Z,89.91
2018-09-11T04:24:10.878Z,90.04
2018-09-11T04:25:15.805Z,90.14
2018-09-11T04:26:21.033Z,90.33
2018-09-11T04:27:25.604Z,90.35
2018-09-11T04:28:30.191Z,90.42
2018-09-11T04:29:34.884Z,90.54
2018-09-11T04:30:39.399Z,90.66
2018-09-11T04:31:44.306Z,90.73
2018-09-11T04:32:49.038Z,90.81
2018-09-11T04:33:53.714Z,90.88
2018-09-11T04:34:58.253Z,91.03
2018-09-11T04:36:02.741Z,90.94
2018-09-11T04:37:07.268Z,90.96
2018-09-11T04:38:12.949Z,91.01
2018-09-11T04:39:17.448Z,90.89
2018-09-11T04:40:21.936Z,91.07
2018-09-11T04:41:26.450Z,91.21
2018-09-11T04:42:30.942Z,91.25
2018-09-11T04:43:35.480Z,91.30
2018-09-11T04:44:40.436Z,91.36
2018-09-11T04:45:44.905Z,91.44
2018-09-11T04:46:49.426Z,91.48
2018-09-11T04:47:53.947Z,91.46
2018-09-11T04:48:58.536Z,91.52
2018-09-11T04:50:03.048Z,91.53
2018-09-11T04:51:07.690Z,91.61
2018-09-11T04:52:12.204Z,91.67
2018-09-11T04:53:16.694Z,91.83
2018-09-11T04:54:21.155Z,91.73
2018-09-11T04:55:25.653Z,91.85
2018-09-11T04:56:30.631Z,91.99
2018-09-11T04:57:35.156Z,91.87
2018-09-11T04:58:39.605Z,91.96
2018-09-11T04:59:44.266Z,91.97
2018-09-11T05:00:48.814Z,91.87
2018-09-11T05:01:53.284Z,91.97
2018-09-11T05:02:58.113Z,92.02
2018-09-11T05:04:02.620Z,92.25
2018-09-11T05:05:07.135Z,92.18
2018-09-11T05:06:11.690Z,92.13
2018-09-11T05:07:16.217Z,92.32
2018-09-11T05:08:20.732Z,92.23
2018-09-11T05:09:25.555Z,92.47
2018-09-11T05:10:30.019Z,92.47
2018-09-11T05:11:34.626Z,92.50
2018-09-11T05:12:39.142Z,92.61
2018-09-11T05:13:43.613Z,92.63
2018-09-11T05:14:48.650Z,92.75
2018-09-11T05:15:53.540Z,92.58
2018-09-11T05:16:58.810Z,92.65
2018-09-11T05:18:03.478Z,92.78
2018-09-11T05:19:08.377Z,92.67
2018-09-11T05:20:14.682Z,92.64
2018-09-11T05:21:19.194Z,92.65
2018-09-11T05:22:23.965Z,92.53
2018-09-11T05:23:28.764Z,92.45
2018-09-11T05:24:33.307Z,92.47
2018-09-11T05:25:37.917Z,92.41
2018-09-11T05:26:42.488Z,92.28
2018-09-11T05:27:47.032Z,92.27
2018-09-11T05:28:53.190Z,92.31
2018-09-11T05:29:57.957Z,92.44
2018-09-11T05:33:32.321Z,92.23
2018-09-11T05:34:37.095Z,92.29
2018-09-11T05:35:41.915Z,92.27
2018-09-11T05:36:46.408Z,92.18
2018-09-11T05:37:50.911Z,92.23
2018-09-11T05:38:55.446Z,92.09
2018-09-11T05:39:59.949Z,92.06
2018-09-11T05:41:04.451Z,92.00
2018-09-11T05:42:09.213Z,91.72
2018-09-11T05:43:14.361Z,91.68
2018-09-11T05:44:20.485Z,91.82
2018-09-11T05:45:25.618Z,91.85
2018-09-11T05:46:30.955Z,91.69
2018-09-11T05:47:35.413Z,91.40
2018-09-11T05:48:40.829Z,91.46
2018-09-11T05:49:45.377Z,91.24
2018-09-11T05:50:50.211Z,91.09
2018-09-11T05:51:54.769Z,90.95
2018-09-11T05:52:59.293Z,91.05
2018-09-11T05:54:04.402Z,90.85
2018-09-11T05:55:10.533Z,90.43
2018-09-11T05:56:18.469Z,90.43
2018-09-11T05:57:23.709Z,90.47
2018-09-11T05:58:28.348Z,90.53
2018-09-11T05:59:32.825Z,90.11
2018-09-11T06:00:37.922Z,90.07
2018-09-11T06:01:42.831Z,90.07
2018-09-11T06:02:47.328Z,89.71
2018-09-11T06:03:51.891Z,89.64
2018-09-11T06:04:56.430Z,89.35
2018-09-11T06:06:01.268Z,89.20
2018-09-11T06:07:05.813Z,89.21
2018-09-11T06:08:10.564Z,89.01
2018-09-11T06:09:15.652Z,88.94
2018-09-11T06:10:20.543Z,89.14
2018-09-11T06:11:25.295Z,88.91
2018-09-11T06:12:30.613Z,88.68
2018-09-11T06:13:35.096Z,88.39
2018-09-11T06:14:40.012Z,88.34
2018-09-11T06:15:44.488Z,88.15
2018-09-11T06:16:50.407Z,87.93
2018-09-11T06:17:55.656Z,87.66
2018-09-11T06:19:00.585Z,87.80
2018-09-11T06:20:05.699Z,87.05
2018-09-11T06:21:10.321Z,86.91
2018-09-11T06:22:14.801Z,86.53
2018-09-11T06:23:19.367Z,86.13
2018-09-11T06:24:23.898Z,86.49
2018-09-11T06:25:28.414Z,86.11
2018-09-11T06:26:34.081Z,85.93
2018-09-11T06:27:38.672Z,86.12
2018-09-11T06:28:44.294Z,86.02
2018-09-11T06:29:48.820Z,85.98
2018-09-11T06:30:55.840Z,86.04
2018-09-11T06:32:00.328Z,85.87
2018-09-11T06:33:05.390Z,85.50
2018-09-11T06:34:09.991Z,85.61
2018-09-11T06:35:14.452Z,84.86
2018-09-11T06:36:19.801Z,84.56
2018-09-11T06:37:24.404Z,84.68
2018-09-11T06:38:28.912Z,84.56
2018-09-11T06:39:33.734Z,84.34
2018-09-11T06:40:38.240Z,83.71
2018-09-11T06:41:42.731Z,83.35
2018-09-11T06:42:47.204Z,83.25
2018-09-11T06:43:51.784Z,82.76
2018-09-11T06:44:56.556Z,82.97
2018-09-11T06:46:03.161Z,82.93
2018-09-11T06:47:08.727Z,82.90
2018-09-11T06:48:13.291Z,82.67
2018-09-11T06:49:19.363Z,82.25
2018-09-11T06:50:24.868Z,82.37
2018-09-11T06:51:31.748Z,82.21
2018-09-11T06:52:36.652Z,82.02
2018-09-11T06:53:45.537Z,81.76
2018-09-11T06:54:50.837Z,81.33
2018-09-11T06:55:55.439Z,81.23
2018-09-11T06:57:00.603Z,80.65
2018-09-11T06:58:05.252Z,80.60
2018-09-11T06:59:10.881Z,80.57
2018-09-11T07:00:15.364Z,80.41
2018-09-11T07:01:19.937Z,80.26
2018-09-11T07:02:24.457Z,80.16
2018-09-11T07:03:28.978Z,79.79
2018-09-11T07:04:33.510Z,79.50
2018-09-11T07:05:38.633Z,79.91
2018-09-11T07:06:45.651Z,79.41
2018-09-11T07:07:51.902Z,79.03
2018-09-11T07:08:57.052Z,78.17
2018-09-11T07:10:01.651Z,77.24
2018-09-11T07:11:06.471Z,77.32
2018-09-11T07:12:12.304Z,76.95
2018-09-11T07:13:18.378Z,76.43
2018-09-11T07:14:22.999Z,75.79
2018-09-11T07:15:27.937Z,75.85
2018-09-11T07:16:32.455Z,75.35
2018-09-11T07:17:36.974Z,74.72
2018-09-11T07:18:41.981Z,74.03
2018-09-11T07:19:46.596Z,74.29
2018-09-11T07:20:51.873Z,74.84
2018-09-11T07:21:56.447Z,74.85
2018-09-11T07:23:00.939Z,74.02
2018-09-11T07:24:05.432Z,74.10
2018-09-11T07:25:10.306Z,74.14
2018-09-11T07:26:19.407Z,73.63
2018-09-11T07:27:24.828Z,73.44
2018-09-11T07:28:29.349Z,73.53
2018-09-11T07:29:34.842Z,73.69
2018-09-11T07:30:39.424Z,73.49
2018-09-11T07:31:44.354Z,74.02
2018-09-11T07:32:49.804Z,72.84
2018-09-11T07:33:54.395Z,72.02
2018-09-11T07:34:59.103Z,70.57
2018-09-11T07:36:03.642Z,65.66
2018-09-11T07:37:08.307Z,65.21
2018-09-11T07:38:15.682Z,65.79
2018-09-11T07:39:20.640Z,66.21
2018-09-11T07:40:27.097Z,65.58
2018-09-11T07:41:31.921Z,65.12
2018-09-11T07:42:38.311Z,64.48
2018-09-11T07:43:43.855Z,63.77
2018-09-11T07:44:48.800Z,63.71
2018-09-11T07:45:56.221Z,62.62
2018-09-11T07:47:01.695Z,62.32
2018-09-11T07:48:06.233Z,62.69
2018-09-11T07:49:10.846Z,63.82
2018-09-11T07:50:16.928Z,64.62
2018-09-11T07:51:21.415Z,64.42
2018-09-11T07:52:26.076Z,65.47
2018-09-11T07:53:31.189Z,65.82
2018-09-11T07:54:36.347Z,65.32
2018-09-11T07:55:46.507Z,66.63
2018-09-11T07:56:52.085Z,66.34
2018-09-11T07:57:56.684Z,65.69
2018-09-11T07:59:01.213Z,65.65
2018-09-11T08:00:06.399Z,65.66
2018-09-11T08:01:10.930Z,65.25
2018-09-11T08:02:15.721Z,65.47
2018-09-11T08:03:21.132Z,66.39
2018-09-11T08:04:26.563Z,67.02
2018-09-11T08:05:31.077Z,66.16
2018-09-11T08:06:35.697Z,65.95
2018-09-11T08:07:41.452Z,66.16
2018-09-11T08:08:49.385Z,65.31
2018-09-11T08:09:53.919Z,63.68
2018-09-11T08:10:58.500Z,64.05
2018-09-11T08:12:04.044Z,63.36
2018-09-11T08:13:09.227Z,64.03
2018-09-11T08:14:14.395Z,63.37
2018-09-11T08:15:21.660Z,63.59
2018-09-11T08:16:26.240Z,0.00
2018-09-11T08:17:32.676Z,62.48
2018-09-11T08:18:38.290Z,62.16
2018-09-11T08:19:43.617Z,61.87
2018-09-11T08:20:48.395Z,63.11
2018-09-11T08:21:54.274Z,63.70
2018-09-11T08:22:58.791Z,63.90
2018-09-11T08:24:03.420Z,63.33
2018-09-11T08:25:08.556Z,61.72
2018-09-11T08:26:14.063Z,60.70
2018-09-11T08:27:18.587Z,59.68
2018-09-11T08:28:24.174Z,58.85
2018-09-11T08:29:28.894Z,58.12
2018-09-11T08:30:34.348Z,56.38
2018-09-11T08:31:40.594Z,53.46
2018-09-11T08:32:45.169Z,53.02
2018-09-11T08:33:51.738Z,52.32
2018-09-11T08:34:56.840Z,53.90
2018-09-11T08:36:01.375Z,51.99
2018-09-11T08:37:06.940Z,51.45
2018-09-11T08:38:11.464Z,51.26
2018-09-11T08:39:15.914Z,49.74
2018-09-11T08:40:20.439Z,46.21
2018-09-11T08:41:26.537Z,48.33
2018-09-11T08:42:35.655Z,51.02
2018-09-11T08:43:43.842Z,53.69
2018-09-11T08:44:49.051Z,57.08
2018-09-11T08:45:55.623Z,59.12
2018-09-11T08:47:02.168Z,61.95
2018-09-11T08:48:07.144Z,62.53
2018-09-11T08:49:11.962Z,64.52
2018-09-11T08:50:17.147Z,64.49
2018-09-11T08:51:22.232Z,65.05
2018-09-11T08:52:27.382Z,64.79
2018-09-11T08:53:35.220Z,64.14
2018-09-11T08:54:41.376Z,64.06
2018-09-11T08:55:45.892Z,64.71
2018-09-11T08:56:50.565Z,64.67
2018-09-11T08:57:55.129Z,64.15
2018-09-11T08:58:59.696Z,64.24
2018-09-11T09:00:06.057Z,64.98
2018-09-11T09:01:11.541Z,63.81
2018-09-11T09:02:16.493Z,62.21
2018-09-11T09:03:21.446Z,62.50
2018-09-11T09:04:27.784Z,59.19
2018-09-11T09:05:35.354Z,59.64
2018-09-11T09:06:40.416Z,59.13
2018-09-11T09:07:45.966Z,59.25
2018-09-11T09:08:51.016Z,58.76
2018-09-11T09:09:55.595Z,58.63
2018-09-11T09:11:00.366Z,58.39
2018-09-11T09:12:05.004Z,58.22
2018-09-11T09:13:10.117Z,59.91
2018-09-11T09:14:14.607Z,60.69
2018-09-11T09:15:19.114Z,59.97
2018-09-11T09:16:23.708Z,60.42
2018-09-11T09:17:28.243Z,59.36
2018-09-11T09:18:32.807Z,60.30
2018-09-11T09:19:39.592Z,61.67
2018-09-11T09:20:44.188Z,62.30
2018-09-11T09:21:48.733Z,63.72
2018-09-11T09:22:53.704Z,63.50
2018-09-11T09:23:58.744Z,63.17
2018-09-11T09:25:04.237Z,62.65
2018-09-11T09:26:08.810Z,63.31
2018-09-11T09:27:13.429Z,62.83
2018-09-11T09:28:18.411Z,62.64
2018-09-11T09:29:22.960Z,62.65
2018-09-11T09:30:29.226Z,62.52
2018-09-11T09:31:35.529Z,62.67
2018-09-11T09:32:40.287Z,61.79
2018-09-11T09:33:46.736Z,61.98
2018-09-11T09:34:51.732Z,62.02
2018-09-11T09:35:56.782Z,62.83
2018-09-11T09:37:01.483Z,63.43
2018-09-11T09:38:06.324Z,62.62
2018-09-11T09:39:11.466Z,61.96
2018-09-11T09:40:16.368Z,61.37
2018-09-11T09:41:21.185Z,61.58
2018-09-11T09:42:27.474Z,61.68
2018-09-11T09:43:32.384Z,62.45
2018-09-11T09:44:37.964Z,62.28
2018-09-11T09:45:43.123Z,62.38
2018-09-11T09:46:47.705Z,62.93
2018-09-11T09:47:52.335Z,62.97
2018-09-11T09:48:57.892Z,63.56
2018-09-11T09:50:02.496Z,63.61
2018-09-11T09:51:09.282Z,64.17
2018-09-11T09:52:14.690Z,63.98
2018-09-11T09:53:19.224Z,63.06
2018-09-11T09:54:23.811Z,63.75
2018-09-11T09:55:28.354Z,63.08
2018-09-11T09:56:32.924Z,63.18
2018-09-11T09:57:37.892Z,62.45
2018-09-11T09:58:42.417Z,63.38
2018-09-11T09:59:46.992Z,62.96
2018-09-11T10:01:00.678Z,62.11
2018-09-11T10:02:09.813Z,61.65
2018-09-11T10:03:14.330Z,62.05
2018-09-11T10:04:19.468Z,61.42
2018-09-11T10:05:23.992Z,61.45
2018-09-11T10:06:28.498Z,61.22
2018-09-11T10:07:33.030Z,60.52
2018-09-11T10:08:37.523Z,60.52
2018-09-11T10:09:43.060Z,61.22
2018-09-11T10:10:48.406Z,62.42
2018-09-11T10:11:54.600Z,62.30
2018-09-11T10:12:59.143Z,61.69
2018-09-11T10:14:03.689Z,61.44
2018-09-11T10:15:08.334Z,62.47
2018-09-11T10:16:14.244Z,62.05
2018-09-11T10:17:18.801Z,61.53
2018-09-11T10:18:23.277Z,61.85
2018-09-11T10:19:27.845Z,61.63
2018-09-11T10:20:32.595Z,61.69
2018-09-11T10:21:39.622Z,61.67
2018-09-11T10:22:45.245Z,61.21
2018-09-11T10:23:52.035Z,61.18
2018-09-11T10:24:56.636Z,61.33
2018-09-11T10:26:02.115Z,60.44
2018-09-11T10:27:11.205Z,59.90
2018-09-11T10:28:15.756Z,59.60
2018-09-11T10:29:21.103Z,58.82
2018-09-11T10:32:34.447Z,58.88
2018-09-11T10:33:40.019Z,58.06
2018-09-11T10:34:45.512Z,58.06
2018-09-11T10:35:51.328Z,58.41
2018-09-11T10:36:56.228Z,57.93
2018-09-11T10:38:03.901Z,57.82
2018-09-11T10:39:09.436Z,56.63
2018-09-11T10:40:14.351Z,56.82
2018-09-11T10:41:18.886Z,57.52
2018-09-11T10:42:27.967Z,57.33
2018-09-11T10:43:32.648Z,56.88
2018-09-11T10:44:39.284Z,0.00
2018-09-11T10:45:43.859Z,57.16
2018-09-11T10:46:51.621Z,56.86
2018-09-11T10:47:57.012Z,56.37
2018-09-11T10:49:01.901Z,55.73
2018-09-11T10:50:06.554Z,55.77
2018-09-11T10:51:12.069Z,100.00
2018-09-11T10:52:18.365Z,0.00
2018-09-11T10:53:23.492Z,55.56
2018-09-11T10:54:28.005Z,55.47
2018-09-11T10:55:32.869Z,54.43
2018-09-11T10:56:41.338Z,54.72
2018-09-11T10:57:45.863Z,54.62
2018-09-11T10:58:50.553Z,55.19
2018-09-11T10:59:55.266Z,54.67
2018-09-11T11:01:01.108Z,54.87
2018-09-11T11:02:06.785Z,55.53
2018-09-11T11:03:11.423Z,55.29
2018-09-11T11:04:16.033Z,55.59
2018-09-11T11:05:20.588Z,55.33
2018-09-11T11:06:25.115Z,55.02
2018-09-11T11:07:32.298Z,55.26
2018-09-11T11:08:36.848Z,54.44
2018-09-11T11:09:41.348Z,53.95
2018-09-11T11:10:45.835Z,54.48
2018-09-11T11:11:51.387Z,53.04
2018-09-11T11:12:55.984Z,53.96
2018-09-11T11:14:00.923Z,51.96
2018-09-11T11:15:05.730Z,51.77
2018-09-11T11:16:10.445Z,50.87
2018-09-11T11:17:15.166Z,50.60
2018-09-11T11:18:19.692Z,53.29
2018-09-11T11:19:25.521Z,52.68
2018-09-11T11:20:30.417Z,51.66
2018-09-11T11:21:35.016Z,51.23
2018-09-11T11:22:39.523Z,52.10
2018-09-11T11:23:44.061Z,53.47
2018-09-11T11:24:51.616Z,52.94
2018-09-11T11:25:57.112Z,51.93
2018-09-11T11:27:02.558Z,51.40
2018-09-11T11:28:07.142Z,50.22
2018-09-11T11:29:12.543Z,50.83
2018-09-11T11:30:17.368Z,51.50
2018-09-11T11:31:21.967Z,51.03
2018-09-11T11:32:29.084Z,50.71
2018-09-11T11:33:34.129Z,49.85
2018-09-11T11:34:39.531Z,49.62
2018-09-11T11:35:44.135Z,49.85
2018-09-11T11:36:49.924Z,49.74
2018-09-11T11:37:54.471Z,50.38
2018-09-11T11:39:00.610Z,49.84
2018-09-11T11:40:05.884Z,50.14
2018-09-11T11:41:10.768Z,50.23
2018-09-11T11:42:15.359Z,49.40
2018-09-11T11:43:20.535Z,49.13
2018-09-11T11:44:26.687Z,50.55
2018-09-11T11:45:31.801Z,50.71
2018-09-11T11:46:37.172Z,50.92
2018-09-11T11:47:44.431Z,49.83
2018-09-11T11:48:49.112Z,48.06
2018-09-11T11:49:54.307Z,47.70
2018-09-11T11:50:59.266Z,47.53
2018-09-11T11:52:04.264Z,46.62
2018-09-11T11:53:09.440Z,45.95
2018-09-11T11:54:13.981Z,46.40
2018-09-11T11:55:21.655Z,48.12
2018-09-11T11:56:27.881Z,47.88
2018-09-11T11:57:33.290Z,48.85
2018-09-11T11:58:38.229Z,49.05
2018-09-11T11:59:43.112Z,48.32
2018-09-11T12:00:53.932Z,47.99
2018-09-11T12:01:58.875Z,47.36
2018-09-11T12:03:03.821Z,46.64
2018-09-11T12:04:09.015Z,45.65
2018-09-11T12:05:14.232Z,46.51
2018-09-11T12:06:18.777Z,47.86
2018-09-11T12:07:23.551Z,47.28
2018-09-11T12:08:28.669Z,47.86
2018-09-11T12:09:33.335Z,47.72
2018-09-11T12:10:39.242Z,47.67
2018-09-11T12:11:44.276Z,48.16
2018-09-11T12:12:48.929Z,48.88
2018-09-11T12:13:54.992Z,48.38
2018-09-11T12:15:01.616Z,48.08
2018-09-11T12:16:06.367Z,46.98
2018-09-11T12:17:12.379Z,46.51
2018-09-11T12:18:21.477Z,46.56
2018-09-11T12:19:27.471Z,45.86
2018-09-11T12:20:33.261Z,45.09
2018-09-11T12:21:37.788Z,45.27
2018-09-11T12:22:42.378Z,44.42
2018-09-11T12:23:47.044Z,44.00
2018-09-11T12:24:52.859Z,44.75
2018-09-11T12:25:58.089Z,44.94
2018-09-11T12:27:02.914Z,44.78
2018-09-11T12:28:07.757Z,44.29
2018-09-11T12:29:12.843Z,44.70
2018-09-11T12:30:17.428Z,45.79
2018-09-11T12:31:25.434Z,45.38
2018-09-11T12:32:29.978Z,45.39
2018-09-11T12:33:34.480Z,45.08
2018-09-11T12:34:39.169Z,45.60
2018-09-11T12:35:44.816Z,45.12
2018-09-11T12:36:49.795Z,44.92
2018-09-11T12:37:57.786Z,45.07
2018-09-11T12:39:03.380Z,44.99
2018-09-11T12:40:09.375Z,45.58
2018-09-11T12:41:15.544Z,45.01
2018-09-11T12:42:21.111Z,45.10
2018-09-11T12:43:25.811Z,45.24
2018-09-11T12:44:32.033Z,44.76
2018-09-11T12:45:38.440Z,44.32
2018-09-11T12:46:43.226Z,43.27
2018-09-11T12:47:47.878Z,42.57
2018-09-11T12:48:53.034Z,42.03
2018-09-11T12:49:58.115Z,42.58
2018-09-11T12:51:03.753Z,43.26
2018-09-11T12:52:08.912Z,42.81
2018-09-11T12:53:14.723Z,41.87
2018-09-11T12:54:19.305Z,41.89
2018-09-11T12:55:24.514Z,41.10
2018-09-11T12:56:29.135Z,42.79
2018-09-11T12:57:34.191Z,44.00
2018-09-11T12:58:38.932Z,43.96
2018-09-11T12:59:43.641Z,44.51
2018-09-11T13:00:48.146Z,43.98
2018-09-11T13:01:52.751Z,43.05
2018-09-11T13:03:00.732Z,43.00
2018-09-11T13:04:07.270Z,41.88
2018-09-11T13:05:11.800Z,41.75
2018-09-11T13:06:17.276Z,40.91
2018-09-11T13:07:21.856Z,41.44
2018-09-11T13:08:26.430Z,41.45
2018-09-11T13:09:31.686Z,41.22
2018-09-11T13:10:38.048Z,40.62
2018-09-11T13:11:43.328Z,41.66
2018-09-11T13:12:47.925Z,40.52
2018-09-11T13:13:54.049Z,40.96
2018-09-11T13:14:59.655Z,40.62
2018-09-11T13:16:05.301Z,41.37
2018-09-11T13:17:12.807Z,40.47
2018-09-11T13:18:19.435Z,39.21
2018-09-11T13:19:24.491Z,38.38
2018-09-11T13:20:29.011Z,39.73
2018-09-11T13:21:35.076Z,40.13
2018-09-11T13:22:41.398Z,38.89
2018-09-11T13:23:48.682Z,37.03
2018-09-11T13:24:54.256Z,37.03
2018-09-11T13:26:01.605Z,37.28
2018-09-11T13:27:06.085Z,36.21
2018-09-11T13:28:11.601Z,38.38
2018-09-11T13:29:20.285Z,37.55
2018-09-11T13:30:25.161Z,36.10
2018-09-11T13:31:29.716Z,36.06
2018-09-11T13:32:34.180Z,35.29
2018-09-11T13:33:38.808Z,34.92
2018-09-11T13:34:44.122Z,35.67
2018-09-11T13:35:48.877Z,34.54
2018-09-11T13:36:53.884Z,34.43
2018-09-11T13:37:58.725Z,34.19
2018-09-11T13:39:06.110Z,32.84
2018-09-11T13:40:12.126Z,33.70
2018-09-11T13:41:16.923Z,33.71
2018-09-11T13:42:21.973Z,33.62
2018-09-11T13:43:26.496Z,31.12
2018-09-11T13:44:31.977Z,32.98
2018-09-11T13:45:36.556Z,30.51
2018-09-11T13:46:41.992Z,31.57
2018-09-11T13:47:48.166Z,32.22
2018-09-11T13:48:54.086Z,30.67
2018-09-11T13:50:00.281Z,32.44
2018-09-11T13:51:05.053Z,30.60
2018-09-11T13:52:10.778Z,30.49
2018-09-11T13:53:18.038Z,30.03
2018-09-11T13:54:25.721Z,31.55
2018-09-11T13:55:31.574Z,33.51
2018-09-11T13:56:37.675Z,33.36
2018-09-11T13:57:43.619Z,31.62
2018-09-11T13:58:49.891Z,31.63
2018-09-11T13:59:55.191Z,31.56
2018-09-11T14:01:02.015Z,30.37
2018-09-11T14:02:07.639Z,30.14
2018-09-11T14:03:13.341Z,29.41